Estación de Huelquen
Ultimos registro cada 15 minutos 51
| N° | Estación | Fecha / Hora | Temperatura | Humedad | Lluvia | Velocidad | Dirección | Radiación | Presion |
| 51 | Huelquen | 08-05-2026 12:30 | 17,8 | 53 | 0 | 0,4 | 274 | 527 | 1019,2 |
| 50 | Huelquen | 08-05-2026 12:15 | 17,4 | 54 | 0 | 0,4 | 216 | 526 | 1019,5 |
| 49 | Huelquen | 08-05-2026 12:00 | 16,8 | 56 | 0 | 0,4 | 307 | 520 | 1019,5 |
| 48 | Huelquen | 08-05-2026 11:45 | 16,3 | 56 | 0 | 0 | 265 | 513 | 1019,7 |
| 47 | Huelquen | 08-05-2026 11:30 | 15,9 | 59 | 0 | 0 | 345 | 497 | 1019,9 |
| 46 | Huelquen | 08-05-2026 11:15 | 15,4 | 63 | 0 | 0,4 | 320 | 480 | 1020 |
| 45 | Huelquen | 08-05-2026 11:00 | 14,9 | 64 | 0 | 0 | 201 | 462 | 1020,2 |
| 44 | Huelquen | 08-05-2026 10:45 | 14,6 | 65 | 0 | 0 | 316 | 441 | 1020,7 |
| 43 | Huelquen | 08-05-2026 10:30 | 14,1 | 68 | 0 | 0 | 280 | 420 | 1020,6 |
| 42 | Huelquen | 08-05-2026 10:15 | 13,1 | 71 | 0 | 0 | 355 | 390 | 1020,9 |
| 41 | Huelquen | 08-05-2026 10:00 | 12,1 | 79 | 0 | 0 | 238 | 360 | 1021,5 |
| 40 | Huelquen | 08-05-2026 09:45 | 11,1 | 85 | 0 | 0 | 281 | 327 | 1021,2 |
| 39 | Huelquen | 08-05-2026 09:30 | 10,6 | 89 | 0 | 0 | 281 | 295 | 1021,4 |
| 38 | Huelquen | 08-05-2026 09:15 | 9,5 | 91 | 0 | 0 | 195 | 258 | 1021,6 |
| 37 | Huelquen | 08-05-2026 09:00 | 8,9 | 92 | 0 | 0 | 179 | 216 | 1021,6 |
| 36 | Huelquen | 08-05-2026 08:45 | 7,7 | 93 | 0 | 0 | 179 | 179 | 1021,6 |
| 35 | Huelquen | 08-05-2026 08:30 | 6,3 | 93 | 0 | 0 | 179 | 141 | 1021,2 |
| 34 | Huelquen | 08-05-2026 08:15 | 4,4 | 89 | 0 | 0 | 242 | 104 | 1020,8 |
| 33 | Huelquen | 08-05-2026 08:00 | 4,3 | 89 | 0 | 0 | 243 | 16 | 1020,7 |
| 32 | Huelquen | 08-05-2026 07:45 | 3,8 | 88 | 0 | 0 | 243 | 11 | 1020,6 |
| 31 | Huelquen | 08-05-2026 07:30 | 3,8 | 87 | 0 | 0 | 243 | 7 | 1020,7 |
| 30 | Huelquen | 08-05-2026 07:15 | 4,1 | 87 | 0 | 0 | 243 | 0 | 1020,6 |
| 29 | Huelquen | 08-05-2026 07:00 | 4,2 | 87 | 0 | 0 | 337 | 0 | 1020,6 |
| 28 | Huelquen | 08-05-2026 06:45 | 4,2 | 87 | 0 | 0 | 337 | 0 | 1020,9 |
| 27 | Huelquen | 08-05-2026 06:30 | 4,6 | 87 | 0 | 0 | 337 | 0 | 1021,3 |
| 26 | Huelquen | 08-05-2026 06:15 | 4,8 | 87 | 0,2 | 0 | 224 | 0 | 1021,3 |
| 25 | Huelquen | 08-05-2026 06:00 | 4,8 | 86 | 0 | 0 | 224 | 0 | 1020,8 |
| 24 | Huelquen | 08-05-2026 05:45 | 4,9 | 86 | 0 | 0 | 224 | 0 | 1020,6 |
| 23 | Huelquen | 08-05-2026 05:30 | 5,2 | 86 | 0 | 0 | 224 | 0 | 1020,8 |
| 22 | Huelquen | 08-05-2026 05:15 | 5,6 | 86 | 0 | 0 | 224 | 0 | 1020,7 |
| 21 | Huelquen | 08-05-2026 05:00 | 5,5 | 87 | 0 | 0 | 11 | 0 | 1020,7 |
| 20 | Huelquen | 08-05-2026 04:45 | 5,2 | 85 | 0 | 0 | 338 | 0 | 1020,6 |
| 19 | Huelquen | 08-05-2026 04:30 | 5,7 | 84 | 0 | 0 | 194 | 0 | 1020,3 |
| 18 | Huelquen | 08-05-2026 04:15 | 6,1 | 85 | 0 | 0 | 335 | 0 | 1020,1 |
| 17 | Huelquen | 08-05-2026 04:00 | 6,4 | 85 | 0 | 0 | 355 | 0 | 1020,2 |
| 16 | Huelquen | 08-05-2026 03:45 | 6,4 | 84 | 0 | 0 | 355 | 0 | 1020,7 |
| 15 | Huelquen | 08-05-2026 03:30 | 6,9 | 84 | 0 | 0 | 355 | 0 | 1020,8 |
| 14 | Huelquen | 08-05-2026 03:15 | 7,4 | 84 | 0 | 0 | 355 | 0 | 1020,9 |
| 13 | Huelquen | 08-05-2026 03:00 | 7,4 | 84 | 0 | 0 | 355 | 0 | 1021,1 |
| 12 | Huelquen | 08-05-2026 02:45 | 7,6 | 83 | 0 | 0 | 304 | 0 | 1021,3 |
| 11 | Huelquen | 08-05-2026 02:30 | 7,9 | 82 | 0 | 0 | 303 | 0 | 1021,2 |
| 10 | Huelquen | 08-05-2026 02:15 | 8,4 | 82 | 0 | 0 | 239 | 0 | 1021,4 |
| 9 | Huelquen | 08-05-2026 02:00 | 8,9 | 82 | 0 | 0 | 239 | 0 | 1021,4 |
| 8 | Huelquen | 08-05-2026 01:45 | 9,1 | 83 | 0 | 0 | 255 | 0 | 1021,8 |
| 7 | Huelquen | 08-05-2026 01:30 | 8,7 | 82 | 0 | 0 | 19 | 0 | 1022 |
| 6 | Huelquen | 08-05-2026 01:15 | 9,2 | 80 | 0 | 0 | 19 | 0 | 1021,8 |
| 5 | Huelquen | 08-05-2026 01:00 | 9,9 | 80 | 0 | 0 | 19 | 0 | 1021,9 |
| 4 | Huelquen | 08-05-2026 00:45 | 10,4 | 80 | 0 | 0 | 19 | 0 | 1021,7 |
| 3 | Huelquen | 08-05-2026 00:30 | 10,7 | 79 | 0 | 0 | 19 | 0 | 1022,3 |
| 2 | Huelquen | 08-05-2026 00:15 | 10,9 | 78 | 0 | 0 | 19 | 0 | 1022,3 |
| 1 | Huelquen | 08-05-2026 00:00 | 11,1 | 77 | 0 | 0 | 19 | 0 | 1022,6 |